Terminal Aerodrome Forecast
Issued by NWS Cleveland, OH

Home | Current Version | Previous Version | Graphics & Text | Print | Product List | Glossary On
Versions: 1 2 3 4 5 6 7 8 9 10 11 12
000
FTUS41 KCLE 291134
TAFTOL
TAF
KTOL 291134Z 2912/3012 17006KT P6SM SCT100 BKN250
     FM291600 22010KT P6SM SCT040 BKN250
     FM291900 24010KT P6SM SCT040 BKN250
      TEMPO 2919/2922 4SM -TSRA OVC040CB
     FM292300 28008KT P6SM SCT100 BKN250
     FM300300 26006KT P6SM SCT250=

USA.gov is the U.S. government's official web portal to all federal, state and local government web resources and services.